Terminal Aerodrome Forecast
Issued by NWS Wilmington, OH

Current Version | Previous Version | Text Only | Print | Product List | Glossary Off
Versions: 1 2 3 4 5 6 7 8 9 10 11 12 13 14 15 16 17

000
FTUS41 KILN 010248 AAA
TAFDAY
TAF AMD
KDAY 010248Z 0103/0124 23003KT P6SM FEW050 SCT250
     FM010800 23003KT 5SM BR SCT250
      TEMPO 0109/0112 3SM BR
     FM011400 24005KT P6SM SCT025
     FM011800 25008KT P6SM BKN040=

USA.gov is the U.S. government's official web portal to all federal, state and local government web resources and services.